Nearby METAR Reports

 

KCXP - Carson City, Nevada, USA
Distance from station: WSW 2mi, 3km
Updated: Tue, Oct-24-2017 1:55am PDT
Clear
Clear
 Wind from calm
Wind: Calm
Temperature: 45°F , 7°C
Dew Point: 37°F , 3°C
Humidity: 76%
Barometer: 30.64 inHg , 1037.6 hPa
Clouds: Clear
Visibility: 10 miles , 16 km
2017/10/24 08:55 KCXP 240855Z AUTO 00000KT 10SM CLR 07/03 A3064 RMK AO2
KRNO - Reno, Nevada, USA
Distance from station: N 21mi, 34km
Updated: Tue, Oct-24-2017 1:55am PDT
Clear
Clear
 Wind from calm
Wind: Calm
Temperature: 48°F , 9°C
Dew Point: 39°F , 4°C
Humidity: 71%
Barometer: 30.61 inHg , 1036.6 hPa
Clouds: Clear
Visibility: 10 miles , 16 km
2017/10/24 08:55 KRNO 240855Z 00000KT 10SM CLR 09/04 A3061 RMK AO2 SLP336 T00940044 56001
 
KTRK - Truckee Tahoe, California, USA
Distance from station: WNW 24mi, 38km
Updated: Tue, Oct-24-2017 1:55am PDT
Clear
Clear
 Wind from calm
Wind: Calm
Temperature: 34°F , 1°C
Dew Point: 32°F , 0°C
Humidity: 93%
Barometer: 30.65 inHg , 1037.9 hPa
Clouds: Clear
Visibility: 10 miles , 16 km
2017/10/24 08:55 KTRK 240855Z AUTO 00000KT 10SM CLR 01/00 A3065 RMK AO2
KTVL - South Lake Tahoe, California, USA
Distance from station: SW 26mi, 42km
Updated: Tue, Oct-24-2017 1:53am PDT
Clear
Clear
 Wind from SSW
Wind: SSW 3 mph , 6 km/h
Temperature: 34°F , 1°C
Dew Point: 32°F , 0°C
Humidity: 93%
Barometer: 30.64 inHg , 1037.6 hPa
Clouds: Clear
Visibility: 10 miles , 16 km
2017/10/24 08:53 KTVL 240853Z AUTO 21003KT 10SM CLR 01/00 A3064 RMK AO2 SLP349 T00110000 58004
 
KRTS - Reno/Stead, Nevada, USA
Distance from station: NNW 34mi, 54km
Updated: Fri, Oct-20-2017 1:50pm PDT
NOT Current
Overcast
Overcast
 Wind from WNW
Wind: WNW 12 mph , 19 km/h, Gust: 23 mph , 37 km/h
Temperature: 46°F , 8°C
Wind Chill: 40°F , 4°C
Dew Point: 27°F , -3°C
Humidity: 46%
Barometer: 30.03 inHg , 1016.9 hPa
Clouds: Overcast
Visibility: 10 miles , 16 km
Cloud details: Overcast 4300 ft
2017/10/20 20:50 KRTS 202050Z AUTO 29010G20KT 10SM OVC043 08/M03 A3003 RMK AO2
KBLU - Emigrant Gap, California, USA
Distance from station: W 54mi, 87km
Updated: Tue, Oct-24-2017 1:52am PDT
Clear
Clear
 Wind from ENE
Wind: ENE 10 mph , 17 km/h, Gust: 20 mph , 31 km/h
Temperature: 63°F , 17°C
Dew Point: 34°F , 1°C
Humidity: 34%
Barometer: 30.47 inHg , 1031.8 hPa
Clouds: Clear
Visibility: 10 miles , 16 km
2017/10/24 08:52 KBLU 240852Z AUTO 06009G17KT 020V100 10SM CLR 17/01 A3047 RMK AO2 SLP224 T01720006 57004 TSNO
 
KNFL - Fallon Nas, Nevada, USA
Distance from station: ENE 56mi, 89km
Updated: Tue, Oct-24-2017 1:56am PDT
Clear
Clear
 Wind from W
Wind: W 6 mph , 9 km/h
Temperature: 45°F , 7°C
Wind Chill: 42°F , 6°C
Dew Point: 34°F , 1°C
Humidity: 66%
Barometer: 30.59 inHg , 1035.9 hPa
Clouds: Clear
Visibility: 10 miles , 16 km
2017/10/24 08:56 KNFL 240856Z AUTO 26005KT 10SM CLR 07/01 A3059 RMK AO2 SLP309 T00670011 50002
KBAN - Bridgeport(Mcmwt, California, USA
Distance from station: S 60mi, 96km
Updated: Tue, Oct-24-2017 1:52am PDT
Clear
Clear
 Wind from calm
Wind: Calm
Temperature: 34°F , 1°C
Dew Point: 27°F , -3°C
Humidity: 75%
Barometer: 30.69 inHg , 1039.3 hPa
Clouds: Clear
Visibility: 10 miles , 16 km
2017/10/24 08:52 KBAN 240852Z AUTO 00000KT 10SM CLR 01/M03 A3069 RMK AO2 SLP331 T00061033 58001 $
 
KPVF - Placerville, California, USA
Distance from station: WSW 66mi, 105km
Updated: Tue, Oct-24-2017 1:55am PDT
Clear
Clear
 Wind from E
Wind: E 8 mph , 13 km/h
Temperature: 77°F , 25°C
Dew Point: 32°F , 0°C
Humidity: 19%
Barometer: 30.29 inHg , 1025.7 hPa
Clouds: Clear
Visibility: 10 miles , 16 km
2017/10/24 08:55 KPVF 240855Z AUTO 10007KT 10SM CLR 25/00 A3029 RMK AO1
KGOO - Grass Valley, California, USA
Distance from station: W 70mi, 112km
Updated: Sun, Oct-22-2017 6:50am PDT
NOT Current
Clear
Clear
 Wind from NNE
Wind: NNE 5 mph , 7 km/h
Temperature: 50°F , 10°C
Wind Chill: 48°F , 9°C
Dew Point: 37°F , 3°C
Humidity: 62%
Barometer: 30.36 inHg , 1028.1 hPa
Clouds: Clear
Visibility: 10 miles , 16 km
2017/10/22 13:50 KGOO 221350Z AUTO 02004KT 10SM CLR 10/03 A3036 RMK AO1
 
KAUN - Auburn Muni, California, USA
Distance from station: WSW 76mi, 123km
Updated: Tue, Oct-24-2017 1:55am PDT
Clear
Clear
 Wind from calm
Wind: Calm
Temperature: 55°F , 13°C
Dew Point: 50°F , 10°C
Humidity: 82%
Barometer: 30.23 inHg , 1023.7 hPa
Clouds: Clear
Visibility: 10 miles , 16 km
2017/10/24 08:55 KAUN 240855Z AUTO 00000KT 10SM CLR 13/10 A3023 RMK AO1
KLOL - Lovelock, Nevada, USA
Distance from station: NE 85mi, 137km
Updated: Tue, Oct-24-2017 1:53am PDT
Clear
Clear
 Wind from SW
Wind: SW 3 mph , 6 km/h
Temperature: 45°F , 7°C
Dew Point: 30°F , -1°C
Humidity: 57%
Barometer: 30.61 inHg , 1036.6 hPa
Clouds: Clear
Visibility: 10 miles , 16 km
2017/10/24 08:53 KLOL 240853Z AUTO 22003KT 10SM CLR 07/M01 A3061 RMK AO2 SLP350 T00721006 51002 TSNO
 
KLHM - Lincoln, California, USA
Distance from station: WSW 91mi, 146km
Updated: Tue, Oct-24-2017 1:55am PDT
Clear
Clear
 Wind from E
Wind: E 5 mph , 7 km/h
Temperature: 52°F , 11°C
Dew Point: 50°F , 10°C
Humidity: 94%
Barometer: 30.17 inHg , 1021.7 hPa
Clouds: Clear
Visibility: 10 miles , 16 km
2017/10/24 08:55 KLHM 240855Z AUTO 09004KT 10SM CLR 11/10 A3017 RMK AO1
KBAB - Beale Afb/Marysv, California, USA
Distance from station: W 92mi, 148km
Updated: Tue, Oct-24-2017 1:58am PDT
Clear
Clear
 Wind from calm
Wind: Calm
Temperature: 55°F , 13°C
Dew Point: 52°F , 11°C
Humidity: 88%
Barometer: 30.17 inHg , 1021.7 hPa
Clouds: Clear
Visibility: 10 miles , 16 km
2017/10/24 08:58 KBAB 240858Z 00000KT 10SM CLR 13/11 A3017 RMK AO2A SLP219 T01290107 53000 $
 
KMHR - Mather Field, California, USA
Distance from station: WSW 97mi, 156km
Updated: Mon, Oct-23-2017 10:55pm PDT
NOT Current
Few Clouds
Few Clouds
 Wind from calm
Wind: Calm
Temperature: 61°F , 16°C
Dew Point: 52°F , 11°C
Humidity: 72%
Barometer: 30.18 inHg , 1022 hPa
Clouds: Few Clouds
Visibility: 10 miles , 16 km
Cloud details: Few Clouds 10000 ft
2017/10/24 05:55 KMHR 240555Z 00000KT 10SM FEW100 16/11 A3018
KMCC - Mcclellan Afb, California, USA
Distance from station: WSW 99mi, 159km
Updated: Tue, Oct-24-2017 1:55am PDT
Clear
Clear
 Wind from calm
Wind: Calm
Temperature: 59°F , 15°C
Dew Point: 52°F , 11°C
Humidity: 77%
Barometer: 30.19 inHg , 1022.4 hPa
Clouds: Clear
Visibility: 7 miles , 11 km
2017/10/24 08:55 KMCC 240855Z AUTO 00000KT 7SM CLR 15/11 A3019 RMK AO2
 
KMYV - Marysville, California, USA
Distance from station: W 100mi, 161km
Updated: Tue, Oct-24-2017 1:53am PDT
Clear
Clear
 Wind from N
Wind: N 3 mph , 6 km/h
Temperature: 54°F , 12°C
Dew Point: 52°F , 11°C
Humidity: 94%
Barometer: 30.18 inHg , 1022 hPa
Clouds: Clear
Visibility: 10 miles , 16 km
2017/10/24 08:53 KMYV 240853Z AUTO 36003KT 10SM CLR 12/11 A3018 RMK AO2 SLP224 T01220111 57000